sensor_id;sensor_type;location;lat;lon;timestamp;temperature;humidity
12981;DHT22;6555;50.468;8.480;2023-02-27T00:01:45;1.50;51.90
12981;DHT22;6555;50.468;8.480;2023-02-27T00:06:48;1.50;51.90
12981;DHT22;6555;50.468;8.480;2023-02-27T00:11:51;1.40;51.80
12981;DHT22;6555;50.468;8.480;2023-02-27T00:16:55;1.40;51.90
12981;DHT22;6555;50.468;8.480;2023-02-27T00:21:58;1.40;51.90
12981;DHT22;6555;50.468;8.480;2023-02-27T00:27:01;1.40;51.80
12981;DHT22;6555;50.468;8.480;2023-02-27T00:32:06;1.40;51.80
12981;DHT22;6555;50.468;8.480;2023-02-27T00:37:09;1.30;51.70
12981;DHT22;6555;50.468;8.480;2023-02-27T00:42:12;1.30;51.70
12981;DHT22;6555;50.468;8.480;2023-02-27T00:47:16;1.20;51.60
12981;DHT22;6555;50.468;8.480;2023-02-27T00:52:19;1.20;51.70
12981;DHT22;6555;50.468;8.480;2023-02-27T00:57:22;1.20;51.80
12981;DHT22;6555;50.468;8.480;2023-02-27T01:02:26;1.20;51.80
12981;DHT22;6555;50.468;8.480;2023-02-27T01:07:30;1.10;51.70
12981;DHT22;6555;50.468;8.480;2023-02-27T01:12:34;1.10;51.70
12981;DHT22;6555;50.468;8.480;2023-02-27T01:17:38;1.00;51.60
12981;DHT22;6555;50.468;8.480;2023-02-27T01:22:41;1.00;51.60
12981;DHT22;6555;50.468;8.480;2023-02-27T01:27:46;0.90;51.70
12981;DHT22;6555;50.468;8.480;2023-02-27T01:32:52;0.90;51.80
12981;DHT22;6555;50.468;8.480;2023-02-27T01:37:55;0.90;51.80
12981;DHT22;6555;50.468;8.480;2023-02-27T01:42:59;0.90;51.90
12981;DHT22;6555;50.468;8.480;2023-02-27T01:48:14;0.80;51.80
12981;DHT22;6555;50.468;8.480;2023-02-27T01:53:20;0.90;51.90
12981;DHT22;6555;50.468;8.480;2023-02-27T01:58:26;0.80;51.80
12981;DHT22;6555;50.468;8.480;2023-02-27T02:03:34;0.80;51.80
12981;DHT22;6555;50.468;8.480;2023-02-27T02:08:42;0.70;51.80
12981;DHT22;6555;50.468;8.480;2023-02-27T02:13:48;0.70;51.80
12981;DHT22;6555;50.468;8.480;2023-02-27T02:18:59;0.70;51.80
12981;DHT22;6555;50.468;8.480;2023-02-27T02:24:33;0.70;52.00
12981;DHT22;6555;50.468;8.480;2023-02-27T02:30:13;0.60;51.90
12981;DHT22;6555;50.468;8.480;2023-02-27T02:35:59;0.60;51.90
12981;DHT22;6555;50.468;8.480;2023-02-27T02:41:13;0.60;51.90
12981;DHT22;6555;50.468;8.480;2023-02-27T02:46:27;0.60;52.00
12981;DHT22;6555;50.468;8.480;2023-02-27T02:51:38;0.70;52.10
12981;DHT22;6555;50.468;8.480;2023-02-27T02:56:50;0.60;52.00
12981;DHT22;6555;50.468;8.480;2023-02-27T03:01:58;0.60;52.00
12981;DHT22;6555;50.468;8.480;2023-02-27T03:07:05;0.60;52.00
12981;DHT22;6555;50.468;8.480;2023-02-27T03:12:17;0.60;52.00
12981;DHT22;6555;50.468;8.480;2023-02-27T03:17:26;0.60;51.90
12981;DHT22;6555;50.468;8.480;2023-02-27T03:22:34;0.60;52.00
12981;DHT22;6555;50.468;8.480;2023-02-27T03:27:43;0.60;51.90
12981;DHT22;6555;50.468;8.480;2023-02-27T03:32:55;0.60;51.90
12981;DHT22;6555;50.468;8.480;2023-02-27T03:38:05;0.50;52.00
12981;DHT22;6555;50.468;8.480;2023-02-27T03:43:16;0.50;52.70
12981;DHT22;6555;50.468;8.480;2023-02-27T03:48:26;0.50;52.00
12981;DHT22;6555;50.468;8.480;2023-02-27T03:53:33;0.50;52.00
12981;DHT22;6555;50.468;8.480;2023-02-27T03:58:41;0.40;51.90
12981;DHT22;6555;50.468;8.480;2023-02-27T04:03:48;0.40;51.90
12981;DHT22;6555;50.468;8.480;2023-02-27T04:09:20;0.40;51.90
12981;DHT22;6555;50.468;8.480;2023-02-27T04:14:42;0.40;52.00
12981;DHT22;6555;50.468;8.480;2023-02-27T04:20:01;0.40;52.00
12981;DHT22;6555;50.468;8.480;2023-02-27T04:25:23;0.40;52.00
12981;DHT22;6555;50.468;8.480;2023-02-27T04:30:38;0.40;51.90
12981;DHT22;6555;50.468;8.480;2023-02-27T04:35:48;0.30;52.00
12981;DHT22;6555;50.468;8.480;2023-02-27T04:40:55;0.30;52.00
12981;DHT22;6555;50.468;8.480;2023-02-27T04:46:03;0.30;52.00
12981;DHT22;6555;50.468;8.480;2023-02-27T04:51:11;0.30;51.90
12981;DHT22;6555;50.468;8.480;2023-02-27T04:56:18;0.30;51.90
12981;DHT22;6555;50.468;8.480;2023-02-27T05:01:28;0.20;51.80
12981;DHT22;6555;50.468;8.480;2023-02-27T05:06:35;0.20;51.90
12981;DHT22;6555;50.468;8.480;2023-02-27T05:11:46;0.10;51.90
12981;DHT22;6555;50.468;8.480;2023-02-27T05:16:57;0.10;52.00
12981;DHT22;6555;50.468;8.480;2023-02-27T05:22:10;0.10;52.00
12981;DHT22;6555;50.468;8.480;2023-02-27T05:27:23;0.10;52.00
12981;DHT22;6555;50.468;8.480;2023-02-27T05:32:35;0.10;52.00
12981;DHT22;6555;50.468;8.480;2023-02-27T05:37:43;0.10;52.10
12981;DHT22;6555;50.468;8.480;2023-02-27T05:42:52;0.10;52.10
12981;DHT22;6555;50.468;8.480;2023-02-27T05:48:01;0.00;52.00
12981;DHT22;6555;50.468;8.480;2023-02-27T05:53:08;0.00;52.00
12981;DHT22;6555;50.468;8.480;2023-02-27T05:58:16;0.00;52.00
12981;DHT22;6555;50.468;8.480;2023-02-27T06:03:22;0.00;52.00
12981;DHT22;6555;50.468;8.480;2023-02-27T06:08:25;0.00;52.00
12981;DHT22;6555;50.468;8.480;2023-02-27T06:13:28;-0.10;52.00
12981;DHT22;6555;50.468;8.480;2023-02-27T06:18:33;-0.10;52.10
12981;DHT22;6555;50.468;8.480;2023-02-27T06:23:35;-0.10;52.10
12981;DHT22;6555;50.468;8.480;2023-02-27T06:28:39;-0.10;52.20
12981;DHT22;6555;50.468;8.480;2023-02-27T06:33:44;-0.10;52.20
12981;DHT22;6555;50.468;8.480;2023-02-27T06:38:47;-0.10;52.20
12981;DHT22;6555;50.468;8.480;2023-02-27T06:43:50;-0.10;52.90
12981;DHT22;6555;50.468;8.480;2023-02-27T06:48:54;-0.10;52.30
12981;DHT22;6555;50.468;8.480;2023-02-27T06:53:57;-0.10;52.40
12981;DHT22;6555;50.468;8.480;2023-02-27T06:59:00;-0.10;52.40
12981;DHT22;6555;50.468;8.480;2023-02-27T07:04:04;-0.10;52.40
12981;DHT22;6555;50.468;8.480;2023-02-27T07:09:07;0.00;52.60
12981;DHT22;6555;50.468;8.480;2023-02-27T07:14:10;0.00;52.70
12981;DHT22;6555;50.468;8.480;2023-02-27T07:19:17;0.10;52.80
12981;DHT22;6555;50.468;8.480;2023-02-27T07:24:20;0.20;52.80
12981;DHT22;6555;50.468;8.480;2023-02-27T07:29:23;0.30;53.00
12981;DHT22;6555;50.468;8.480;2023-02-27T07:34:27;0.50;53.10
12981;DHT22;6555;50.468;8.480;2023-02-27T07:39:30;0.60;53.30
12981;DHT22;6555;50.468;8.480;2023-02-27T07:44:32;0.80;53.40
12981;DHT22;6555;50.468;8.480;2023-02-27T07:49:37;0.90;53.50
12981;DHT22;6555;50.468;8.480;2023-02-27T07:54:40;1.10;53.60
12981;DHT22;6555;50.468;8.480;2023-02-27T07:59:43;1.30;53.70
12981;DHT22;6555;50.468;8.480;2023-02-27T08:04:47;1.50;53.70
12981;DHT22;6555;50.468;8.480;2023-02-27T08:09:50;1.60;53.60
12981;DHT22;6555;50.468;8.480;2023-02-27T08:14:53;1.80;53.70
12981;DHT22;6555;50.468;8.480;2023-02-27T08:19:57;2.00;53.70
12981;DHT22;6555;50.468;8.480;2023-02-27T08:25:00;2.10;53.80
12981;DHT22;6555;50.468;8.480;2023-02-27T08:30:04;2.30;53.90
12981;DHT22;6555;50.468;8.480;2023-02-27T08:35:10;2.60;54.10
12981;DHT22;6555;50.468;8.480;2023-02-27T08:40:13;2.80;53.90
12981;DHT22;6555;50.468;8.480;2023-02-27T08:45:16;3.00;53.70
12981;DHT22;6555;50.468;8.480;2023-02-27T08:50:21;3.10;53.40
12981;DHT22;6555;50.468;8.480;2023-02-27T08:55:24;3.20;53.20
12981;DHT22;6555;50.468;8.480;2023-02-27T09:00:27;3.30;53.40
12981;DHT22;6555;50.468;8.480;2023-02-27T09:05:32;3.40;53.30
12981;DHT22;6555;50.468;8.480;2023-02-27T09:10:38;3.50;53.00
12981;DHT22;6555;50.468;8.480;2023-02-27T09:15:41;3.40;52.70
12981;DHT22;6555;50.468;8.480;2023-02-27T09:20:45;3.40;52.70
12981;DHT22;6555;50.468;8.480;2023-02-27T09:25:50;3.40;52.80
12981;DHT22;6555;50.468;8.480;2023-02-27T09:30:53;3.40;52.90
12981;DHT22;6555;50.468;8.480;2023-02-27T09:35:57;3.40;53.00
12981;DHT22;6555;50.468;8.480;2023-02-27T09:41:01;3.40;52.90
12981;DHT22;6555;50.468;8.480;2023-02-27T09:46:05;3.50;53.00
12981;DHT22;6555;50.468;8.480;2023-02-27T09:51:10;3.50;52.70
12981;DHT22;6555;50.468;8.480;2023-02-27T09:56:19;3.50;52.80
12981;DHT22;6555;50.468;8.480;2023-02-27T10:01:26;3.60;53.10
12981;DHT22;6555;50.468;8.480;2023-02-27T10:06:37;3.70;53.20
12981;DHT22;6555;50.468;8.480;2023-02-27T10:11:56;3.80;53.10
12981;DHT22;6555;50.468;8.480;2023-02-27T10:17:02;4.00;53.10
12981;DHT22;6555;50.468;8.480;2023-02-27T10:22:13;4.10;53.20
12981;DHT22;6555;50.468;8.480;2023-02-27T10:27:20;4.30;53.10
12981;DHT22;6555;50.468;8.480;2023-02-27T10:32:25;4.50;53.20
12981;DHT22;6555;50.468;8.480;2023-02-27T10:37:31;4.60;53.20
12981;DHT22;6555;50.468;8.480;2023-02-27T10:42:37;4.80;51.70
12981;DHT22;6555;50.468;8.480;2023-02-27T10:47:43;4.90;52.80
12981;DHT22;6555;50.468;8.480;2023-02-27T10:52:52;5.10;53.00
12981;DHT22;6555;50.468;8.480;2023-02-27T10:57:56;5.30;52.20
12981;DHT22;6555;50.468;8.480;2023-02-27T11:03:00;5.40;52.00
12981;DHT22;6555;50.468;8.480;2023-02-27T11:08:13;5.40;52.00
12981;DHT22;6555;50.468;8.480;2023-02-27T11:13:23;5.40;50.50
12981;DHT22;6555;50.468;8.480;2023-02-27T11:18:28;5.40;50.60
12981;DHT22;6555;50.468;8.480;2023-02-27T11:23:33;5.40;51.40
12981;DHT22;6555;50.468;8.480;2023-02-27T11:28:36;5.50;51.50
12981;DHT22;6555;50.468;8.480;2023-02-27T11:33:49;5.50;50.50
12981;DHT22;6555;50.468;8.480;2023-02-27T11:38:55;5.60;48.50
12981;DHT22;6555;50.468;8.480;2023-02-27T11:43:59;5.60;49.40
12981;DHT22;6555;50.468;8.480;2023-02-27T11:49:09;5.80;49.80
12981;DHT22;6555;50.468;8.480;2023-02-27T11:54:31;6.00;50.90
12981;DHT22;6555;50.468;8.480;2023-02-27T11:59:41;6.20;50.60
12981;DHT22;6555;50.468;8.480;2023-02-27T12:04:49;6.40;48.20
12981;DHT22;6555;50.468;8.480;2023-02-27T12:10:00;6.50;45.80
12981;DHT22;6555;50.468;8.480;2023-02-27T12:15:16;6.50;45.30
12981;DHT22;6555;50.468;8.480;2023-02-27T12:20:31;6.50;45.00
12981;DHT22;6555;50.468;8.480;2023-02-27T12:25:41;6.60;43.90
12981;DHT22;6555;50.468;8.480;2023-02-27T12:30:51;6.70;46.20
12981;DHT22;6555;50.468;8.480;2023-02-27T12:36:00;6.70;45.00
12981;DHT22;6555;50.468;8.480;2023-02-27T12:41:23;6.70;46.00
12981;DHT22;6555;50.468;8.480;2023-02-27T12:46:38;6.70;45.00
12981;DHT22;6555;50.468;8.480;2023-02-27T12:51:49;6.90;46.90
12981;DHT22;6555;50.468;8.480;2023-02-27T12:57:04;7.00;46.30
12981;DHT22;6555;50.468;8.480;2023-02-27T13:02:39;7.20;45.80
12981;DHT22;6555;50.468;8.480;2023-02-27T13:07:49;7.20;43.60
12981;DHT22;6555;50.468;8.480;2023-02-27T13:13:01;7.10;46.40
12981;DHT22;6555;50.468;8.480;2023-02-27T13:18:15;7.20;45.50
12981;DHT22;6555;50.468;8.480;2023-02-27T13:23:29;7.30;47.50
12981;DHT22;6555;50.468;8.480;2023-02-27T13:28:36;7.40;47.20
12981;DHT22;6555;50.468;8.480;2023-02-27T13:33:44;7.50;47.10
12981;DHT22;6555;50.468;8.480;2023-02-27T13:38:50;7.40;47.20
12981;DHT22;6555;50.468;8.480;2023-02-27T13:43:55;7.30;47.30
12981;DHT22;6555;50.468;8.480;2023-02-27T13:49:20;7.30;47.80
12981;DHT22;6555;50.468;8.480;2023-02-27T13:54:32;7.30;46.10
12981;DHT22;6555;50.468;8.480;2023-02-27T13:59:39;7.40;47.40
12981;DHT22;6555;50.468;8.480;2023-02-27T14:04:47;7.30;47.20
12981;DHT22;6555;50.468;8.480;2023-02-27T14:09:58;7.30;47.50
12981;DHT22;6555;50.468;8.480;2023-02-27T14:15:04;7.20;47.20
12981;DHT22;6555;50.468;8.480;2023-02-27T14:20:11;7.10;47.30
12981;DHT22;6555;50.468;8.480;2023-02-27T14:25:25;7.00;47.30
12981;DHT22;6555;50.468;8.480;2023-02-27T14:30:39;6.90;47.10
12981;DHT22;6555;50.468;8.480;2023-02-27T14:35:45;6.80;46.20
12981;DHT22;6555;50.468;8.480;2023-02-27T14:40:59;6.70;46.80
12981;DHT22;6555;50.468;8.480;2023-02-27T14:46:19;6.60;45.20
12981;DHT22;6555;50.468;8.480;2023-02-27T14:51:24;6.60;46.50
12981;DHT22;6555;50.468;8.480;2023-02-27T14:56:28;6.50;46.50
12981;DHT22;6555;50.468;8.480;2023-02-27T15:01:36;6.40;46.10
12981;DHT22;6555;50.468;8.480;2023-02-27T15:06:41;6.40;45.30
12981;DHT22;6555;50.468;8.480;2023-02-27T15:11:45;6.40;46.10
12981;DHT22;6555;50.468;8.480;2023-02-27T15:17:14;6.30;46.60
12981;DHT22;6555;50.468;8.480;2023-02-27T15:22:19;6.30;46.30
12981;DHT22;6555;50.468;8.480;2023-02-27T15:27:41;6.20;46.60
12981;DHT22;6555;50.468;8.480;2023-02-27T15:32:45;6.20;47.30
12981;DHT22;6555;50.468;8.480;2023-02-27T15:37:51;6.20;47.20
12981;DHT22;6555;50.468;8.480;2023-02-27T15:42:54;6.20;47.40
12981;DHT22;6555;50.468;8.480;2023-02-27T15:47:59;6.20;47.60
12981;DHT22;6555;50.468;8.480;2023-02-27T15:53:08;6.20;47.70
12981;DHT22;6555;50.468;8.480;2023-02-27T15:58:21;6.30;47.70
12981;DHT22;6555;50.468;8.480;2023-02-27T16:03:29;6.20;45.90
12981;DHT22;6555;50.468;8.480;2023-02-27T16:08:34;6.10;45.50
12981;DHT22;6555;50.468;8.480;2023-02-27T16:13:39;6.00;46.50
12981;DHT22;6555;50.468;8.480;2023-02-27T16:18:46;6.00;47.20
12981;DHT22;6555;50.468;8.480;2023-02-27T16:23:49;5.90;47.40
12981;DHT22;6555;50.468;8.480;2023-02-27T16:28:55;6.00;47.60
12981;DHT22;6555;50.468;8.480;2023-02-27T16:34:01;6.00;47.70
12981;DHT22;6555;50.468;8.480;2023-02-27T16:39:05;6.00;47.60
12981;DHT22;6555;50.468;8.480;2023-02-27T16:44:09;6.00;47.70
12981;DHT22;6555;50.468;8.480;2023-02-27T16:49:20;6.00;47.30
12981;DHT22;6555;50.468;8.480;2023-02-27T16:54:23;5.90;47.40
12981;DHT22;6555;50.468;8.480;2023-02-27T16:59:29;5.90;47.70
12981;DHT22;6555;50.468;8.480;2023-02-27T17:04:33;5.80;47.60
12981;DHT22;6555;50.468;8.480;2023-02-27T17:09:36;5.80;47.70
12981;DHT22;6555;50.468;8.480;2023-02-27T17:14:39;5.80;47.70
12981;DHT22;6555;50.468;8.480;2023-02-27T17:19:44;5.80;47.70
12981;DHT22;6555;50.468;8.480;2023-02-27T17:24:47;5.70;48.40
12981;DHT22;6555;50.468;8.480;2023-02-27T17:29:50;5.60;47.50
12981;DHT22;6555;50.468;8.480;2023-02-27T17:34:55;5.60;47.70
12981;DHT22;6555;50.468;8.480;2023-02-27T17:40:25;5.60;47.80
12981;DHT22;6555;50.468;8.480;2023-02-27T17:45:41;5.50;47.90
12981;DHT22;6555;50.468;8.480;2023-02-27T17:51:14;5.50;48.10
12981;DHT22;6555;50.468;8.480;2023-02-27T17:56:30;5.50;48.00
12981;DHT22;6555;50.468;8.480;2023-02-27T18:02:00;5.50;48.30
12981;DHT22;6555;50.468;8.480;2023-02-27T18:07:18;5.50;48.20
12981;DHT22;6555;50.468;8.480;2023-02-27T18:12:48;5.50;48.40
12981;DHT22;6555;50.468;8.480;2023-02-27T18:18:04;5.50;48.30
12981;DHT22;6555;50.468;8.480;2023-02-27T18:23:36;5.40;48.40
12981;DHT22;6555;50.468;8.480;2023-02-27T18:28:52;5.40;48.10
12981;DHT22;6555;50.468;8.480;2023-02-27T18:34:22;5.40;48.10
12981;DHT22;6555;50.468;8.480;2023-02-27T18:39:41;5.30;48.10
12981;DHT22;6555;50.468;8.480;2023-02-27T18:45:11;5.20;48.00
12981;DHT22;6555;50.468;8.480;2023-02-27T18:50:27;5.10;48.00
12981;DHT22;6555;50.468;8.480;2023-02-27T18:56:03;5.10;48.20
12981;DHT22;6555;50.468;8.480;2023-02-27T19:01:22;5.00;48.10
12981;DHT22;6555;50.468;8.480;2023-02-27T19:06:52;5.00;49.10
12981;DHT22;6555;50.468;8.480;2023-02-27T19:12:10;5.00;48.50
12981;DHT22;6555;50.468;8.480;2023-02-27T19:17:40;5.00;48.60
12981;DHT22;6555;50.468;8.480;2023-02-27T19:22:56;5.00;48.50
12981;DHT22;6555;50.468;8.480;2023-02-27T19:28:27;5.00;48.50
12981;DHT22;6555;50.468;8.480;2023-02-27T19:33:44;5.00;48.50
12981;DHT22;6555;50.468;8.480;2023-02-27T19:39:14;5.00;48.60
12981;DHT22;6555;50.468;8.480;2023-02-27T19:44:32;5.00;48.60
12981;DHT22;6555;50.468;8.480;2023-02-27T19:50:04;5.00;48.60
12981;DHT22;6555;50.468;8.480;2023-02-27T19:55:22;5.00;48.60
12981;DHT22;6555;50.468;8.480;2023-02-27T20:00:54;5.00;48.70
12981;DHT22;6555;50.468;8.480;2023-02-27T20:06:15;5.00;48.70
12981;DHT22;6555;50.468;8.480;2023-02-27T20:11:46;5.00;48.80
12981;DHT22;6555;50.468;8.480;2023-02-27T20:17:05;5.00;48.90
12981;DHT22;6555;50.468;8.480;2023-02-27T20:22:35;5.00;49.00
12981;DHT22;6555;50.468;8.480;2023-02-27T20:27:52;5.00;49.00
12981;DHT22;6555;50.468;8.480;2023-02-27T20:33:24;4.90;49.70
12981;DHT22;6555;50.468;8.480;2023-02-27T20:38:42;5.00;49.00
12981;DHT22;6555;50.468;8.480;2023-02-27T20:44:14;5.00;49.00
12981;DHT22;6555;50.468;8.480;2023-02-27T20:49:33;4.90;49.00
12981;DHT22;6555;50.468;8.480;2023-02-27T20:55:04;4.90;49.00
12981;DHT22;6555;50.468;8.480;2023-02-27T21:00:22;4.90;49.10
12981;DHT22;6555;50.468;8.480;2023-02-27T21:05:56;4.90;49.10
12981;DHT22;6555;50.468;8.480;2023-02-27T21:11:16;4.90;49.20
12981;DHT22;6555;50.468;8.480;2023-02-27T21:16:47;4.90;49.30
12981;DHT22;6555;50.468;8.480;2023-02-27T21:22:08;4.90;49.30
12981;DHT22;6555;50.468;8.480;2023-02-27T21:27:39;4.90;49.30
12981;DHT22;6555;50.468;8.480;2023-02-27T21:32:57;4.90;49.30
12981;DHT22;6555;50.468;8.480;2023-02-27T21:38:29;4.90;49.40
12981;DHT22;6555;50.468;8.480;2023-02-27T21:43:45;4.80;49.30
12981;DHT22;6555;50.468;8.480;2023-02-27T21:49:17;4.80;49.30
12981;DHT22;6555;50.468;8.480;2023-02-27T21:54:37;4.80;49.40
12981;DHT22;6555;50.468;8.480;2023-02-27T22:00:10;4.80;49.50
12981;DHT22;6555;50.468;8.480;2023-02-27T22:05:28;4.80;49.50
12981;DHT22;6555;50.468;8.480;2023-02-27T22:11:03;4.80;49.40
12981;DHT22;6555;50.468;8.480;2023-02-27T22:16:21;4.80;49.40
12981;DHT22;6555;50.468;8.480;2023-02-27T22:21:51;4.70;49.30
12981;DHT22;6555;50.468;8.480;2023-02-27T22:27:10;4.60;49.40
12981;DHT22;6555;50.468;8.480;2023-02-27T22:32:41;4.50;49.40
12981;DHT22;6555;50.468;8.480;2023-02-27T22:37:57;4.40;49.50
12981;DHT22;6555;50.468;8.480;2023-02-27T22:43:31;4.30;49.50
12981;DHT22;6555;50.468;8.480;2023-02-27T22:48:47;4.20;49.70
12981;DHT22;6555;50.468;8.480;2023-02-27T22:54:19;4.10;49.70
12981;DHT22;6555;50.468;8.480;2023-02-27T22:59:37;4.10;49.80
12981;DHT22;6555;50.468;8.480;2023-02-27T23:05:08;4.00;49.70
12981;DHT22;6555;50.468;8.480;2023-02-27T23:10:26;3.90;49.80
12981;DHT22;6555;50.468;8.480;2023-02-27T23:15:59;3.90;50.50
12981;DHT22;6555;50.468;8.480;2023-02-27T23:21:19;3.80;49.90
12981;DHT22;6555;50.468;8.480;2023-02-27T23:27:03;3.80;49.90
12981;DHT22;6555;50.468;8.480;2023-02-27T23:32:42;3.80;50.00
12981;DHT22;6555;50.468;8.480;2023-02-27T23:37:58;3.70;50.00
12981;DHT22;6555;50.468;8.480;2023-02-27T23:43:28;3.70;50.00
12981;DHT22;6555;50.468;8.480;2023-02-27T23:48:46;3.60;50.10
12981;DHT22;6555;50.468;8.480;2023-02-27T23:54:16;3.60;50.00
12981;DHT22;6555;50.468;8.480;2023-02-27T23:59:32;3.50;50.00
